Time;durP1;ratioP1;P1;durP2;ratioP2;P2;SDS_P1;SDS_P2;PMS_P1;PMS_P2;Temp;Humidity;BMP_temperature;BMP_pressure;BME280_temperature;BME280_humidity;BME280_pressure;Samples;Min_cycle;Max_cycle;Signal;HPM_P1;HPM_P2
2023/02/22 00:00:43;;;;;;;17.35;9.50;;;;;;;;;;5040670;28;20392;-76
2023/02/22 00:03:14;;;;;;;18.20;10.27;;;;;;;;;;5047398;28;20073;-76
2023/02/22 00:05:45;;;;;;;17.35;9.05;;;;;;;;;;5039092;28;20046;-76
2023/02/22 00:08:12;;;;;;;15.25;8.85;;;;;;;;;;5035451;28;20037;-76
2023/02/22 00:10:40;;;;;;;18.13;9.63;;;;;;;;;;5037314;28;20046;-76
2023/02/22 00:13:08;;;;;;;17.92;9.07;;;;;;;;;;5033078;28;20136;-75
2023/02/22 00:15:36;;;;;;;17.45;10.25;;;;;;;;;;5038672;28;20531;-76
2023/02/22 00:18:04;;;;;;;16.38;9.63;;;;;;;;;;5038090;28;20083;-75
2023/02/22 00:20:30;;;;;;;15.48;9.55;;;;;;;;;;5052631;28;20055;-76
2023/02/22 00:23:00;;;;;;;17.23;10.45;;;;;;;;;;5037659;28;20393;-75
2023/02/22 00:25:26;;;;;;;14.43;9.38;;;;;;;;;;5033898;28;20042;-76
2023/02/22 00:27:53;;;;;;;16.58;9.30;;;;;;;;;;5033006;28;20046;-75
2023/02/22 00:30:25;;;;;;;15.85;9.60;;;;;;;;;;5041091;28;20045;-75
2023/02/22 00:32:52;;;;;;;17.25;9.32;;;;;;;;;;5042032;28;20041;-76
2023/02/22 00:35:21;;;;;;;14.85;9.93;;;;;;;;;;5044744;28;20067;-76
2023/02/22 00:37:49;;;;;;;16.10;9.93;;;;;;;;;;5033077;28;20052;-76
2023/02/22 00:40:19;;;;;;;19.83;10.52;;;;;;;;;;5041609;28;20052;-76
2023/02/22 00:42:46;;;;;;;21.63;9.93;;;;;;;;;;5037350;28;20465;-76
2023/02/22 00:45:14;;;;;;;16.95;9.65;;;;;;;;;;5052039;28;20300;-76
2023/02/22 00:47:40;;;;;;;19.25;10.63;;;;;;;;;;5042222;28;20053;-76
2023/02/22 00:50:09;;;;;;;15.70;9.77;;;;;;;;;;5058973;22;20045;-77
2023/02/22 00:52:36;;;;;;;17.85;10.18;;;;;;;;;;5066021;28;20071;-76
2023/02/22 00:55:04;;;;;;;18.92;8.98;;;;;;;;;;5072983;28;20051;-77
2023/02/22 00:57:33;;;;;;;21.52;10.02;;;;;;;;;;5072524;28;20044;-76
2023/02/22 01:00:10;;;;;;;13.02;8.38;;;;;;;;;;5073805;28;20048;-76
2023/02/22 01:02:37;;;;;;;18.95;9.95;;;;;;;;;;5072092;28;20044;-76
2023/02/22 01:05:04;;;;;;;18.23;8.95;;;;;;;;;;5072278;28;20063;-76
2023/02/22 01:07:31;;;;;;;15.07;8.63;;;;;;;;;;5072458;28;20135;-76
2023/02/22 01:09:57;;;;;;;15.43;8.90;;;;;;;;;;5072473;28;20048;-76
2023/02/22 01:12:24;;;;;;;14.93;8.65;;;;;;;;;;5071659;28;20484;-76
2023/02/22 01:14:55;;;;;;;16.02;9.48;;;;;;;;;;5072486;28;20103;-77
2023/02/22 01:17:22;;;;;;;15.70;8.48;;;;;;;;;;5071713;28;20090;-77
2023/02/22 01:19:49;;;;;;;16.42;9.82;;;;;;;;;;5072117;28;20135;-77
2023/02/22 01:22:16;;;;;;;15.45;8.70;;;;;;;;;;5072295;28;20045;-77
2023/02/22 01:24:42;;;;;;;19.02;8.80;;;;;;;;;;5072016;28;20119;-77
2023/02/22 01:27:09;;;;;;;18.08;8.40;;;;;;;;;;5072630;28;20097;-77
2023/02/22 01:29:38;;;;;;;15.55;8.30;;;;;;;;;;5073940;28;20044;-77
2023/02/22 01:32:06;;;;;;;13.60;7.85;;;;;;;;;;5072966;28;20384;-78
2023/02/22 01:34:33;;;;;;;16.65;7.80;;;;;;;;;;5071879;28;20498;-77
2023/02/22 01:37:00;;;;;;;14.60;8.30;;;;;;;;;;5071941;28;20406;-78
2023/02/22 01:39:27;;;;;;;12.80;7.10;;;;;;;;;;5072598;28;20052;-77
2023/02/22 01:41:54;;;;;;;12.65;7.82;;;;;;;;;;5071892;28;20049;-78
2023/02/22 01:44:27;;;;;;;13.95;8.50;;;;;;;;;;5071460;28;20563;-79
2023/02/22 01:46:54;;;;;;;12.85;7.60;;;;;;;;;;5052297;28;20064;-77
2023/02/22 01:49:24;;;;;;;11.63;6.93;;;;;;;;;;5064901;28;20112;-78
2023/02/22 01:51:54;;;;;;;13.88;7.25;;;;;;;;;;5072543;28;20044;-75
2023/02/22 01:54:25;;;;;;;12.10;6.82;;;;;;;;;;5071923;28;20430;-75
2023/02/22 01:57:00;;;;;;;11.13;7.03;;;;;;;;;;5071632;28;20457;-75
2023/02/22 01:59:31;;;;;;;11.55;6.32;;;;;;;;;;5071671;28;20053;-77
2023/02/22 02:01:59;;;;;;;10.85;5.85;;;;;;;;;;5071655;28;20479;-75
2023/02/22 02:04:28;;;;;;;12.32;6.95;;;;;;;;;;5071487;28;20068;-75
2023/02/22 02:07:00;;;;;;;9.82;5.78;;;;;;;;;;5071068;28;20112;-76
2023/02/22 02:09:31;;;;;;;8.35;5.60;;;;;;;;;;5071583;28;20400;-76
2023/02/22 02:12:01;;;;;;;9.18;5.68;;;;;;;;;;5067717;28;20636;-76
2023/02/22 02:14:30;;;;;;;10.05;4.65;;;;;;;;;;5051742;28;20060;-76
2023/02/22 02:17:00;;;;;;;9.20;5.38;;;;;;;;;;5069756;28;20045;-76
2023/02/22 02:19:35;;;;;;;8.02;4.97;;;;;;;;;;5071621;28;20045;-75
2023/02/22 02:22:22;;;;;;;7.90;4.90;;;;;;;;;;5071557;28;20101;-76
2023/02/22 02:25:18;;;;;;;8.68;6.10;;;;;;;;;;5053217;28;20045;-76
2023/02/22 02:28:01;;;;;;;9.70;5.53;;;;;;;;;;5072120;28;20128;-76
2023/02/22 02:30:48;;;;;;;8.65;5.22;;;;;;;;;;5075408;28;20052;-76
2023/02/22 02:33:24;;;;;;;9.40;5.45;;;;;;;;;;5075192;28;20132;-76
2023/02/22 02:36:00;;;;;;;8.85;4.97;;;;;;;;;;5073573;28;20072;-76
2023/02/22 02:38:34;;;;;;;10.48;5.50;;;;;;;;;;5069953;28;20421;-77
2023/02/22 02:41:07;;;;;;;9.15;5.25;;;;;;;;;;5075141;28;20513;-75
2023/02/22 02:43:40;;;;;;;11.38;5.40;;;;;;;;;;5074893;28;20048;-75
2023/02/22 02:46:10;;;;;;;10.07;4.72;;;;;;;;;;5074987;28;20140;-76
2023/02/22 02:48:43;;;;;;;8.25;4.57;;;;;;;;;;5074791;28;20055;-75
2023/02/22 02:51:13;;;;;;;10.38;5.10;;;;;;;;;;5075107;28;20036;-76
2023/02/22 02:53:44;;;;;;;9.80;5.22;;;;;;;;;;5074566;28;20041;-75
2023/02/22 02:56:11;;;;;;;8.50;4.80;;;;;;;;;;5075106;28;20502;-76
2023/02/22 02:58:47;;;;;;;7.63;4.72;;;;;;;;;;5074893;28;20047;-76
2023/02/22 03:01:22;;;;;;;9.70;5.30;;;;;;;;;;5074877;28;20453;-76
2023/02/22 03:04:09;;;;;;;9.20;5.07;;;;;;;;;;5054316;28;20076;-76
2023/02/22 03:07:08;;;;;;;9.30;5.35;;;;;;;;;;5068389;28;20123;-77
2023/02/22 03:09:57;;;;;;;9.68;5.20;;;;;;;;;;5069568;28;20078;-76
2023/02/22 03:12:35;;;;;;;9.95;5.63;;;;;;;;;;5075019;28;20128;-77
2023/02/22 03:15:13;;;;;;;9.35;5.43;;;;;;;;;;5075848;28;20135;-76
2023/02/22 03:17:47;;;;;;;15.00;5.55;;;;;;;;;;5076113;28;20118;-77
2023/02/22 03:20:30;;;;;;;7.70;4.22;;;;;;;;;;5074661;28;20135;-76
2023/02/22 03:23:02;;;;;;;9.60;6.05;;;;;;;;;;5075708;28;20696;-76
2023/02/22 03:25:34;;;;;;;9.63;4.93;;;;;;;;;;5074628;28;20052;-76
2023/02/22 03:28:04;;;;;;;8.20;4.80;;;;;;;;;;5074576;28;20051;-76
2023/02/22 03:30:36;;;;;;;10.65;5.47;;;;;;;;;;5074263;28;20414;-76
2023/02/22 03:33:09;;;;;;;9.25;4.70;;;;;;;;;;5073814;28;20411;-76
2023/02/22 03:35:41;;;;;;;9.23;4.85;;;;;;;;;;5074437;28;20048;-76
2023/02/22 03:38:11;;;;;;;9.00;4.70;;;;;;;;;;5074015;28;20044;-76
2023/02/22 03:40:43;;;;;;;9.48;4.90;;;;;;;;;;5072969;28;20503;-77
2023/02/22 03:43:14;;;;;;;8.35;4.70;;;;;;;;;;5073546;28;20451;-76
2023/02/22 03:45:44;;;;;;;9.93;4.85;;;;;;;;;;5073848;28;20052;-76
2023/02/22 03:48:19;;;;;;;8.77;4.70;;;;;;;;;;5073613;28;20521;-77
2023/02/22 03:50:49;;;;;;;8.35;4.38;;;;;;;;;;5073704;28;20052;-76
2023/02/22 03:53:17;;;;;;;8.73;5.10;;;;;;;;;;5073827;28;20059;-76
2023/02/22 03:55:44;;;;;;;9.90;5.95;;;;;;;;;;5073901;28;20048;-77
2023/02/22 03:58:13;;;;;;;12.80;5.93;;;;;;;;;;5073458;28;20048;-76
2023/02/22 04:00:43;;;;;;;11.13;6.28;;;;;;;;;;5073690;28;20076;-76
2023/02/22 04:03:10;;;;;;;11.77;6.90;;;;;;;;;;5073701;28;20040;-76
2023/02/22 04:05:36;;;;;;;11.48;6.38;;;;;;;;;;5073410;28;20045;-76
2023/02/22 04:08:05;;;;;;;10.25;6.63;;;;;;;;;;5073168;28;20131;-76
2023/02/22 04:10:33;;;;;;;10.75;6.40;;;;;;;;;;5073394;28;20048;-76
2023/02/22 04:13:00;;;;;;;13.43;6.85;;;;;;;;;;5053148;28;20098;-76
2023/02/22 04:15:26;;;;;;;13.98;7.15;;;;;;;;;;5068179;28;20523;-76
2023/02/22 04:17:53;;;;;;;14.45;7.18;;;;;;;;;;5073278;28;20058;-76
2023/02/22 04:20:24;;;;;;;12.90;7.85;;;;;;;;;;5072673;28;20045;-76
2023/02/22 04:22:51;;;;;;;15.65;8.10;;;;;;;;;;5073144;28;20094;-76
2023/02/22 04:25:19;;;;;;;14.27;8.20;;;;;;;;;;5073302;28;20047;-77
2023/02/22 04:27:46;;;;;;;13.50;7.70;;;;;;;;;;5073111;28;20044;-76
2023/02/22 04:30:13;;;;;;;13.40;8.75;;;;;;;;;;5073112;28;20453;-76
2023/02/22 04:32:39;;;;;;;14.80;7.80;;;;;;;;;;5072396;28;20132;-75
2023/02/22 04:35:07;;;;;;;16.42;8.27;;;;;;;;;;5073062;28;20123;-76
2023/02/22 04:37:34;;;;;;;12.68;7.88;;;;;;;;;;5072935;28;20120;-75
2023/02/22 04:40:01;;;;;;;15.43;7.95;;;;;;;;;;5072707;28;20052;-75
2023/02/22 04:42:29;;;;;;;15.90;9.27;;;;;;;;;;5072576;28;20043;-76
2023/02/22 04:44:55;;;;;;;15.40;9.68;;;;;;;;;;5072545;28;20052;-76
2023/02/22 04:47:22;;;;;;;15.80;8.95;;;;;;;;;;5072598;28;20046;-76
2023/02/22 04:49:48;;;;;;;14.70;9.07;;;;;;;;;;5072063;28;20485;-77
2023/02/22 04:52:15;;;;;;;16.48;9.07;;;;;;;;;;5071230;28;20044;-77
2023/02/22 04:54:42;;;;;;;16.05;10.50;;;;;;;;;;5072239;28;20048;-77
2023/02/22 04:57:09;;;;;;;15.23;9.15;;;;;;;;;;5072360;28;20506;-76
2023/02/22 04:59:37;;;;;;;16.65;9.20;;;;;;;;;;5071855;28;20074;-77
2023/02/22 05:02:04;;;;;;;16.20;9.02;;;;;;;;;;5071831;28;20776;-76
2023/02/22 05:04:30;;;;;;;16.90;9.52;;;;;;;;;;5072194;28;20080;-77
2023/02/22 05:06:57;;;;;;;14.60;9.43;;;;;;;;;;5056060;28;20052;-78
2023/02/22 05:09:23;;;;;;;15.77;9.52;;;;;;;;;;5066826;28;20523;-77
2023/02/22 05:11:50;;;;;;;13.23;9.13;;;;;;;;;;5071999;28;20127;-77
2023/02/22 05:14:17;;;;;;;16.25;9.18;;;;;;;;;;5072314;28;20420;-76
2023/02/22 05:16:45;;;;;;;14.77;8.60;;;;;;;;;;5058927;28;20359;-77
2023/02/22 05:19:12;;;;;;;14.25;8.45;;;;;;;;;;5072283;28;20055;-77
2023/02/22 05:21:39;;;;;;;14.60;8.52;;;;;;;;;;5072515;28;20048;-78
2023/02/22 05:24:06;;;;;;;17.63;9.10;;;;;;;;;;5075492;28;20051;-77
2023/02/22 05:26:33;;;;;;;14.02;8.93;;;;;;;;;;5073053;28;20040;-77
2023/02/22 05:29:00;;;;;;;14.15;8.85;;;;;;;;;;5073929;28;20041;-77
2023/02/22 05:31:26;;;;;;;14.88;8.88;;;;;;;;;;5074497;28;20080;-77
2023/02/22 05:33:54;;;;;;;15.70;8.90;;;;;;;;;;5071718;28;20475;-77
2023/02/22 05:36:21;;;;;;;14.15;9.05;;;;;;;;;;5072406;28;20048;-77
2023/02/22 05:38:48;;;;;;;15.80;9.15;;;;;;;;;;5072084;28;20522;-77
2023/02/22 05:41:14;;;;;;;14.20;8.77;;;;;;;;;;5072269;28;20155;-77
2023/02/22 05:43:42;;;;;;;17.67;9.15;;;;;;;;;;5070878;28;20045;-77
2023/02/22 05:46:08;;;;;;;15.13;8.95;;;;;;;;;;5071863;28;20041;-77
2023/02/22 05:48:35;;;;;;;16.98;9.02;;;;;;;;;;5071567;28;20087;-76
2023/02/22 05:51:03;;;;;;;17.83;9.30;;;;;;;;;;5072269;28;20041;-77
2023/02/22 05:53:30;;;;;;;16.98;10.30;;;;;;;;;;5071905;28;20044;-77
2023/02/22 05:55:56;;;;;;;14.15;8.30;;;;;;;;;;5071547;28;20575;-77
2023/02/22 05:58:23;;;;;;;20.27;10.43;;;;;;;;;;5071743;28;20076;-77
2023/02/22 06:00:50;;;;;;;15.95;9.50;;;;;;;;;;5071821;28;20415;-77
2023/02/22 06:03:16;;;;;;;19.48;10.18;;;;;;;;;;5073244;28;20049;-76
2023/02/22 06:05:43;;;;;;;18.55;10.00;;;;;;;;;;5075676;28;20132;-76
2023/02/22 06:08:11;;;;;;;16.80;9.93;;;;;;;;;;5075492;28;20488;-76
2023/02/22 06:10:38;;;;;;;16.10;9.32;;;;;;;;;;5055850;28;20132;-76
2023/02/22 06:13:05;;;;;;;13.30;8.38;;;;;;;;;;5055318;28;20539;-76
2023/02/22 06:15:33;;;;;;;15.25;8.52;;;;;;;;;;5062647;28;20072;-76
2023/02/22 06:18:00;;;;;;;18.42;9.15;;;;;;;;;;5075668;28;20055;-76
2023/02/22 06:20:29;;;;;;;22.02;10.30;;;;;;;;;;5075472;28;20066;-76
2023/02/22 06:22:57;;;;;;;20.92;10.30;;;;;;;;;;5075355;28;20463;-76
2023/02/22 06:25:27;;;;;;;18.25;8.48;;;;;;;;;;5074926;28;20040;-76
2023/02/22 06:27:53;;;;;;;17.20;8.88;;;;;;;;;;5070672;28;20044;-76
2023/02/22 06:30:22;;;;;;;18.88;9.35;;;;;;;;;;5075359;28;20052;-75
2023/02/22 06:32:49;;;;;;;21.52;9.60;;;;;;;;;;5074728;28;20123;-76
2023/02/22 06:35:17;;;;;;;18.50;9.45;;;;;;;;;;5074899;28;20413;-76
2023/02/22 06:37:44;;;;;;;19.20;8.93;;;;;;;;;;5074664;28;20500;-76
2023/02/22 06:40:11;;;;;;;17.98;9.23;;;;;;;;;;5074987;28;20050;-76
2023/02/22 06:42:40;;;;;;;16.60;8.40;;;;;;;;;;5074534;28;20045;-76
2023/02/22 06:45:08;;;;;;;17.88;8.60;;;;;;;;;;5075131;28;20045;-76
2023/02/22 06:47:38;;;;;;;17.80;7.80;;;;;;;;;;5074331;28;20045;-76
2023/02/22 06:50:05;;;;;;;;;;;;;;;;;;5075073;28;20044;-76
2023/02/22 06:52:32;;;;;;;26.65;9.88;;;;;;;;;;5074643;28;20019;-77
2023/02/22 06:54:58;;;;;;;23.65;9.48;;;;;;;;;;5074766;28;20131;-76
2023/02/22 06:57:27;;;;;;;19.08;8.57;;;;;;;;;;5074766;28;20119;-76
2023/02/22 06:59:55;;;;;;;17.02;7.95;;;;;;;;;;5074541;28;20050;-76
2023/02/22 07:02:21;;;;;;;15.60;7.95;;;;;;;;;;5074472;28;20135;-76
2023/02/22 07:04:48;;;;;;;14.13;8.68;;;;;;;;;;5074784;28;20123;-76
2023/02/22 07:07:15;;;;;;;14.95;7.47;;;;;;;;;;5055742;28;20049;-76
2023/02/22 07:09:46;;;;;;;13.80;7.22;;;;;;;;;;5070359;28;20048;-76
2023/02/22 07:12:13;;;;;;;13.63;7.07;;;;;;;;;;5074418;28;20049;-76
2023/02/22 07:14:39;;;;;;;15.57;7.13;;;;;;;;;;5073439;28;20419;-76
2023/02/22 07:17:07;;;;;;;12.07;6.25;;;;;;;;;;5074348;28;20048;-76
2023/02/22 07:19:34;;;;;;;14.98;6.55;;;;;;;;;;5072425;28;20127;-76
2023/02/22 07:22:01;;;;;;;13.23;6.45;;;;;;;;;;5074998;28;20055;-75
2023/02/22 07:24:28;;;;;;;10.98;5.63;;;;;;;;;;5074342;28;20145;-76
2023/02/22 07:26:55;;;;;;;13.32;6.57;;;;;;;;;;5074394;28;20120;-75
2023/02/22 07:29:22;;;;;;;16.20;6.90;;;;;;;;;;5075122;28;20049;-75
2023/02/22 07:31:49;;;;;;;15.10;7.03;;;;;;;;;;5073757;28;20106;-76
2023/02/22 07:34:16;;;;;;;12.65;6.53;;;;;;;;;;5074338;28;20072;-75
2023/02/22 07:36:43;;;;;;;14.93;6.70;;;;;;;;;;5073913;28;20040;-76
2023/02/22 07:39:10;;;;;;;14.48;6.55;;;;;;;;;;5074030;28;20066;-76
2023/02/22 07:41:36;;;;;;;10.32;6.35;;;;;;;;;;5073887;28;20130;-77
2023/02/22 07:44:03;;;;;;;16.08;7.55;;;;;;;;;;5074068;28;20040;-76
2023/02/22 07:46:30;;;;;;;11.68;5.80;;;;;;;;;;5074052;28;20054;-77
2023/02/22 07:48:57;;;;;;;14.43;6.47;;;;;;;;;;5073623;28;20600;-76
2023/02/22 07:51:25;;;;;;;12.40;6.25;;;;;;;;;;5073257;28;20132;-76
2023/02/22 07:53:52;;;;;;;14.57;6.28;;;;;;;;;;5073587;28;20094;-76
2023/02/22 07:56:19;;;;;;;13.70;5.97;;;;;;;;;;5073582;28;20079;-75
2023/02/22 07:58:45;;;;;;;14.23;5.47;;;;;;;;;;5074056;28;20154;-77
2023/02/22 08:01:13;;;;;;;12.52;5.32;;;;;;;;;;5073674;28;20517;-76
2023/02/22 08:03:39;;;;;;;14.80;5.50;;;;;;;;;;5073090;28;20048;-76
2023/02/22 08:06:07;;;;;;;10.38;5.70;;;;;;;;;;5073653;28;20127;-77
2023/02/22 08:08:36;;;;;;;8.27;4.88;;;;;;;;;;5073517;28;20479;-76
2023/02/22 08:11:02;;;;;;;10.98;5.57;;;;;;;;;;5072182;28;20128;-77
2023/02/22 08:13:29;;;;;;;11.90;6.93;;;;;;;;;;5059888;28;20058;-76
2023/02/22 08:15:56;;;;;;;7.97;5.20;;;;;;;;;;5070418;28;20456;-76
2023/02/22 08:18:24;;;;;;;11.48;5.13;;;;;;;;;;5071001;28;20044;-76
2023/02/22 08:20:53;;;;;;;10.80;5.93;;;;;;;;;;5065744;28;20079;-77
2023/02/22 08:23:22;;;;;;;12.63;6.00;;;;;;;;;;5069880;28;20515;-75
2023/02/22 08:25:51;;;;;;;;;;;;;;;;;;5052385;28;20048;-77
2023/02/22 08:28:22;;;;;;;14.60;5.85;;;;;;;;;;5069600;28;19931;-76
2023/02/22 08:30:50;;;;;;;16.80;5.95;;;;;;;;;;5072815;28;20560;-75
2023/02/22 08:33:18;;;;;;;9.95;4.70;;;;;;;;;;5071850;28;20072;-76
2023/02/22 08:35:47;;;;;;;8.93;4.80;;;;;;;;;;5064657;28;20045;-76
2023/02/22 08:38:20;;;;;;;11.80;5.25;;;;;;;;;;5069527;28;20675;-75
2023/02/22 08:40:48;;;;;;;9.35;4.50;;;;;;;;;;5072708;28;20473;-75
2023/02/22 08:43:17;;;;;;;11.57;4.85;;;;;;;;;;5074816;28;20067;-77
2023/02/22 08:45:45;;;;;;;10.48;4.45;;;;;;;;;;5066067;28;20064;-75
2023/02/22 08:48:12;;;;;;;7.43;3.25;;;;;;;;;;5055941;28;20515;-76
2023/02/22 08:50:40;;;;;;;8.70;4.20;;;;;;;;;;5071380;28;20422;-76
2023/02/22 08:53:08;;;;;;;9.73;4.05;;;;;;;;;;5071637;28;20048;-76
2023/02/22 08:55:37;;;;;;;10.38;3.28;;;;;;;;;;5072676;28;20061;-76
2023/02/22 08:58:08;;;;;;;9.88;4.32;;;;;;;;;;5070547;28;20074;-76
2023/02/22 09:00:37;;;;;;;9.27;3.65;;;;;;;;;;5071684;28;20048;-76
2023/02/22 09:03:05;;;;;;;8.32;3.33;;;;;;;;;;5070639;28;20044;-76
2023/02/22 09:05:32;;;;;;;8.27;4.22;;;;;;;;;;5070759;28;20072;-76
2023/02/22 09:08:00;;;;;;;6.97;3.50;;;;;;;;;;5070650;28;20541;-75
2023/02/22 09:10:29;;;;;;;6.50;3.33;;;;;;;;;;5071093;28;20127;-77
2023/02/22 09:12:56;;;;;;;10.50;3.58;;;;;;;;;;5071331;28;20499;-77
2023/02/22 09:15:24;;;;;;;8.68;3.90;;;;;;;;;;5073257;28;20048;-79
2023/02/22 09:17:52;;;;;;;9.50;3.40;;;;;;;;;;5075502;28;20491;-78
2023/02/22 09:20:21;;;;;;;10.18;3.33;;;;;;;;;;5076451;28;20050;-77
2023/02/22 09:22:48;;;;;;;8.38;3.75;;;;;;;;;;5072688;28;20051;-78
2023/02/22 09:25:16;;;;;;;7.15;3.03;;;;;;;;;;5070975;28;20079;-77
2023/02/22 09:27:43;;;;;;;7.90;3.80;;;;;;;;;;5070824;28;20080;-77
2023/02/22 09:30:17;;;;;;;7.00;3.00;;;;;;;;;;5070995;28;20621;-76
2023/02/22 09:32:44;;;;;;;8.05;3.20;;;;;;;;;;5070239;28;20052;-77
2023/02/22 09:35:12;;;;;;;7.07;2.90;;;;;;;;;;5071095;28;20135;-76
2023/02/22 09:37:38;;;;;;;6.47;2.80;;;;;;;;;;5050939;28;20591;-76
2023/02/22 09:40:09;;;;;;;6.65;2.97;;;;;;;;;;5051319;28;20132;-77
2023/02/22 09:42:45;;;;;;;5.15;2.80;;;;;;;;;;5051437;28;20049;-76
2023/02/22 09:45:20;;;;;;;5.25;2.50;;;;;;;;;;5050679;28;20049;-79
2023/02/22 09:47:50;;;;;;;6.18;2.50;;;;;;;;;;5055042;28;20133;-77
2023/02/22 09:50:23;;;;;;;6.40;2.70;;;;;;;;;;5062274;28;20079;-76
2023/02/22 09:52:56;;;;;;;8.18;4.15;;;;;;;;;;5060956;28;20053;-75
2023/02/22 09:55:33;;;;;;;7.35;2.75;;;;;;;;;;5050290;28;20059;-76
2023/02/22 09:58:02;;;;;;;7.07;2.80;;;;;;;;;;5058399;28;20119;-76
2023/02/22 10:00:32;;;;;;;9.23;3.22;;;;;;;;;;5057867;28;20268;-76
2023/02/22 10:03:12;;;;;;;8.07;2.88;;;;;;;;;;5059338;28;20044;-78
2023/02/22 10:05:43;;;;;;;6.25;2.65;;;;;;;;;;5053070;28;20087;-77
2023/02/22 10:08:12;;;;;;;6.65;3.45;;;;;;;;;;5061328;28;20044;-77
2023/02/22 10:10:44;;;;;;;6.13;2.83;;;;;;;;;;5058112;28;20077;-77
2023/02/22 10:13:18;;;;;;;7.15;2.85;;;;;;;;;;5061208;28;20048;-77
2023/02/22 10:15:54;;;;;;;4.70;2.50;;;;;;;;;;5056893;28;20143;-77
2023/02/22 10:19:07;;;;;;;8.23;2.70;;;;;;;;;;5058894;28;20041;-77
2023/02/22 10:22:03;;;;;;;6.63;3.08;;;;;;;;;;4986455;28;20048;-77
2023/02/22 10:24:41;;;;;;;8.73;3.50;;;;;;;;;;5068368;28;20056;-78
2023/02/22 10:27:16;;;;;;;6.95;3.05;;;;;;;;;;5067585;28;20102;-77
2023/02/22 10:29:48;;;;;;;9.77;2.80;;;;;;;;;;5064444;28;20135;-78
2023/02/22 10:32:20;;;;;;;7.32;2.75;;;;;;;;;;5069282;28;20403;-78
2023/02/22 10:34:50;;;;;;;6.45;2.47;;;;;;;;;;5069039;28;20044;-78
2023/02/22 10:37:25;;;;;;;4.50;2.55;;;;;;;;;;5070018;28;20040;-78
2023/02/22 10:39:58;;;;;;;6.22;2.10;;;;;;;;;;5063917;28;20072;-78
2023/02/22 10:42:27;;;;;;;7.05;2.20;;;;;;;;;;5063654;28;20072;-78
2023/02/22 10:44:53;;;;;;;6.55;2.28;;;;;;;;;;5070170;28;20049;-79
2023/02/22 10:47:21;;;;;;;5.43;2.42;;;;;;;;;;5070040;28;20128;-77
2023/02/22 10:49:52;;;;;;;5.82;2.65;;;;;;;;;;5069462;28;20517;-77
2023/02/22 10:52:26;;;;;;;5.45;2.22;;;;;;;;;;5073010;28;20072;-78
2023/02/22 10:54:55;;;;;;;9.45;2.30;;;;;;;;;;5065979;28;20128;-77
2023/02/22 10:57:26;;;;;;;5.50;2.28;;;;;;;;;;5067599;28;20048;-78
2023/02/22 10:59:55;;;;;;;5.65;2.85;;;;;;;;;;5061123;28;20128;-77
2023/02/22 11:02:27;;;;;;;5.47;2.57;;;;;;;;;;5070103;28;20048;-77
2023/02/22 11:04:55;;;;;;;5.22;2.42;;;;;;;;;;5066155;28;20821;-79
2023/02/22 11:07:27;;;;;;;5.45;2.17;;;;;;;;;;5076728;28;20041;-78
2023/02/22 11:09:55;;;;;;;6.60;2.42;;;;;;;;;;5064036;28;20045;-78
2023/02/22 11:12:29;;;;;;;6.78;2.45;;;;;;;;;;5071430;28;20136;-78
2023/02/22 11:14:56;;;;;;;6.25;2.60;;;;;;;;;;5074312;28;20124;-78
2023/02/22 11:17:31;;;;;;;7.30;2.78;;;;;;;;;;5069952;28;20473;-77
2023/02/22 11:20:00;;;;;;;6.05;2.42;;;;;;;;;;5053378;28;20134;-79
2023/02/22 11:22:33;;;;;;;5.75;2.63;;;;;;;;;;5054615;28;20113;-77
2023/02/22 11:25:02;;;;;;;5.32;2.13;;;;;;;;;;5063279;28;20076;-77
2023/02/22 11:27:37;;;;;;;5.32;2.15;;;;;;;;;;5068385;28;20055;-75
2023/02/22 11:30:26;;;;;;;6.75;2.85;;;;;;;;;;5071865;28;20055;-76
2023/02/22 11:32:56;;;;;;;6.88;2.28;;;;;;;;;;5068255;28;20044;-75
2023/02/22 11:35:38;;;;;;;9.20;2.65;;;;;;;;;;5072753;28;20048;-76
2023/02/22 11:38:20;;;;;;;5.38;2.38;;;;;;;;;;5073099;28;20055;-75
2023/02/22 11:41:04;;;;;;;6.40;2.40;;;;;;;;;;5075582;28;20052;-76
2023/02/22 11:43:30;;;;;;;4.88;2.35;;;;;;;;;;5078868;28;20088;-77
2023/02/22 11:46:01;;;;;;;8.95;2.58;;;;;;;;;;5073356;28;20158;-77
2023/02/22 11:48:31;;;;;;;5.60;2.28;;;;;;;;;;5071846;28;20051;-77
2023/02/22 11:51:16;;;;;;;7.30;2.63;;;;;;;;;;5071775;28;20069;-76
2023/02/22 11:53:59;;;;;;;6.47;2.78;;;;;;;;;;5071952;28;20573;-76
2023/02/22 11:56:31;;;;;;;5.85;2.10;;;;;;;;;;5072611;28;20048;-77
2023/02/22 11:59:06;;;;;;;7.13;2.70;;;;;;;;;;5072116;28;20044;-77
2023/02/22 12:01:41;;;;;;;8.45;2.30;;;;;;;;;;5071369;28;20110;-77
2023/02/22 12:04:49;;;;;;;6.30;2.47;;;;;;;;;;5071862;28;20538;-77
2023/02/22 12:07:34;;;;;;;5.70;2.22;;;;;;;;;;5072027;28;20044;-77
2023/02/22 12:10:13;;;;;;;5.10;1.90;;;;;;;;;;5067852;28;20048;-77
2023/02/22 12:12:54;;;;;;;6.35;2.17;;;;;;;;;;5072309;28;20044;-77
2023/02/22 12:15:28;;;;;;;6.60;1.80;;;;;;;;;;5051629;28;20056;-77
2023/02/22 12:18:04;;;;;;;5.60;2.00;;;;;;;;;;5051375;28;20049;-76
2023/02/22 12:20:38;;;;;;;9.10;4.18;;;;;;;;;;5051560;28;20073;-76
2023/02/22 12:23:14;;;;;;;3.35;1.70;;;;;;;;;;5051285;28;20104;-76
2023/02/22 12:25:56;;;;;;;6.40;1.90;;;;;;;;;;5051130;28;20496;-76
2023/02/22 12:28:28;;;;;;;5.40;1.83;;;;;;;;;;5063643;28;20123;-75
2023/02/22 12:31:05;;;;;;;5.25;1.90;;;;;;;;;;5071373;28;20051;-76
2023/02/22 12:33:42;;;;;;;3.10;1.40;;;;;;;;;;5070528;28;20094;-76
2023/02/22 12:36:15;;;;;;;4.90;1.63;;;;;;;;;;5070757;28;20066;-76
2023/02/22 12:38:45;;;;;;;5.00;1.73;;;;;;;;;;5070594;28;20059;-75
2023/02/22 12:41:20;;;;;;;3.97;1.75;;;;;;;;;;5071065;28;20131;-75
2023/02/22 12:43:52;;;;;;;3.55;1.40;;;;;;;;;;5070808;28;20109;-75
2023/02/22 12:46:24;;;;;;;4.85;2.30;;;;;;;;;;5071043;28;20102;-76
2023/02/22 12:48:55;;;;;;;4.53;1.70;;;;;;;;;;5070284;28;20040;-76
2023/02/22 12:51:28;;;;;;;6.13;1.98;;;;;;;;;;5070245;28;20086;-76
2023/02/22 12:54:07;;;;;;;4.55;1.80;;;;;;;;;;5070524;28;20106;-76
2023/02/22 12:56:40;;;;;;;4.13;1.40;;;;;;;;;;5070418;28;20052;-76
2023/02/22 12:59:16;;;;;;;5.40;2.00;;;;;;;;;;5069729;28;20127;-75
2023/02/22 13:01:46;;;;;;;5.57;1.70;;;;;;;;;;5062504;28;20047;-75
2023/02/22 13:04:13;;;;;;;4.95;1.35;;;;;;;;;;5071109;28;20044;-75
2023/02/22 13:06:50;;;;;;;3.42;1.10;;;;;;;;;;5067394;28;20045;-75
2023/02/22 13:09:38;;;;;;;3.17;1.20;;;;;;;;;;5070779;28;20070;-77
2023/02/22 13:12:11;;;;;;;4.50;1.20;;;;;;;;;;5068530;28;20458;-76
2023/02/22 13:14:50;;;;;;;4.65;1.45;;;;;;;;;;5069237;28;20040;-78
2023/02/22 13:17:24;;;;;;;2.72;1.20;;;;;;;;;;5067893;28;20499;-75
2023/02/22 13:19:58;;;;;;;3.28;1.70;;;;;;;;;;5071177;28;20131;-79
2023/02/22 13:22:32;;;;;;;4.88;2.33;;;;;;;;;;5070373;28;20049;-77
2023/02/22 13:25:05;;;;;;;3.58;1.13;;;;;;;;;;5070179;28;20718;-75
2023/02/22 13:27:40;;;;;;;3.20;1.17;;;;;;;;;;5070485;28;20055;-76
2023/02/22 13:30:16;;;;;;;3.92;1.75;;;;;;;;;;5070414;28;20045;-76
2023/02/22 13:33:02;;;;;;;2.70;1.02;;;;;;;;;;5069019;28;20041;-77
2023/02/22 13:35:41;;;;;;;3.72;1.25;;;;;;;;;;5070004;28;20051;-77
2023/02/22 13:38:35;;;;;;;4.32;1.50;;;;;;;;;;5069928;28;20055;-76
2023/02/22 13:41:41;;;;;;;4.43;1.17;;;;;;;;;;5071298;28;20048;-79
2023/02/22 13:45:02;;;;;;;4.32;1.30;;;;;;;;;;5048292;28;20491;-76
2023/02/22 13:47:59;;;;;;;4.75;1.10;;;;;;;;;;5023097;28;20053;-76
2023/02/22 13:50:51;;;;;;;3.50;1.13;;;;;;;;;;5069792;28;20112;-77
2023/02/22 13:53:26;;;;;;;2.85;1.20;;;;;;;;;;5068282;28;20044;-76
2023/02/22 13:55:55;;;;;;;1.83;0.90;;;;;;;;;;5069935;28;20051;-77
2023/02/22 13:58:23;;;;;;;4.03;1.20;;;;;;;;;;5069991;28;20384;-76
2023/02/22 14:00:54;;;;;;;4.90;2.03;;;;;;;;;;5070473;28;20764;-79
2023/02/22 14:03:39;;;;;;;5.18;1.85;;;;;;;;;;5071343;28;20083;-78
2023/02/22 14:06:07;;;;;;;5.93;1.83;;;;;;;;;;5060776;28;20141;-77
2023/02/22 14:08:47;;;;;;;8.55;3.13;;;;;;;;;;5076293;22;20040;-77
2023/02/22 14:11:55;;;;;;;8.50;3.50;;;;;;;;;;5070206;28;20045;-76
2023/02/22 14:14:23;;;;;;;4.72;2.13;;;;;;;;;;5058993;28;20697;-76
2023/02/22 14:17:29;;;;;;;3.85;1.95;;;;;;;;;;5068854;28;20132;-77
2023/02/22 14:20:19;;;;;;;6.43;2.20;;;;;;;;;;5050012;28;20048;-77
2023/02/22 14:22:46;;;;;;;5.45;1.70;;;;;;;;;;5050303;28;20060;-76
2023/02/22 14:25:36;;;;;;;4.20;1.80;;;;;;;;;;5052998;28;20152;-76
2023/02/22 14:28:05;;;;;;;4.40;1.60;;;;;;;;;;5046945;28;20061;-75
2023/02/22 14:30:34;;;;;;;3.40;1.50;;;;;;;;;;5053933;28;20647;-77
2023/02/22 14:33:01;;;;;;;4.20;1.50;;;;;;;;;;5046521;28;20051;-76
2023/02/22 14:35:36;;;;;;;2.85;1.50;;;;;;;;;;5039805;28;21500;-77
2023/02/22 14:38:06;;;;;;;6.95;1.92;;;;;;;;;;5053973;28;20053;-76
2023/02/22 14:40:36;;;;;;;5.75;1.60;;;;;;;;;;5054314;28;20045;-77
2023/02/22 14:43:06;;;;;;;3.42;1.60;;;;;;;;;;5054408;28;20059;-77
2023/02/22 14:45:34;;;;;;;6.00;2.83;;;;;;;;;;5056044;28;20534;-78
2023/02/22 14:48:12;;;;;;;3.65;1.73;;;;;;;;;;5055767;28;20056;-77
2023/02/22 14:50:48;;;;;;;3.03;1.20;;;;;;;;;;5058062;28;20072;-76
2023/02/22 14:53:24;;;;;;;2.88;1.20;;;;;;;;;;5063372;28;20406;-78
2023/02/22 14:55:57;;;;;;;3.88;1.50;;;;;;;;;;5056022;28;20049;-76
2023/02/22 14:58:29;;;;;;;3.30;1.70;;;;;;;;;;5056623;28;20392;-78
2023/02/22 15:00:57;;;;;;;4.60;1.80;;;;;;;;;;5056019;28;20059;-76